Walkerburn, United Kingdom
Current Conditions -  °F | °C
As of 3:50 PM on Friday 31 Oct 2014 (Local Time) from EGPH Reporting Station
Broken Clouds Broken Clouds  
Wind Chill: 64°   Ceiling: 3300
Heat Index: 64°   Visibility: 6mi
Dew Point: 55°   Wind: 14mph
Humidity: 73%   Direction: 200°SSW
Pressure: 29.68"   Gusts: NA
Location:  55.62°N, 3.01°W
Report Text: EGPH 311550Z 20012KT 170V230 9999 BKN033 18/13 Q1005
Loading
Personal Weather Stations






























Interactive Weather Map
Tropical Storm Tracking
New forecast layout! Learn more

10-Day Weather Forecast

Advertisements
Track Severe Weather on mobile